createdAt,value
2019-04-11T00:00:55.866Z,58.82
2019-04-11T00:01:56.321Z,57.99
2019-04-11T00:02:55.845Z,58.20
2019-04-11T00:03:55.839Z,58.61
2019-04-11T00:04:56.648Z,57.58
2019-04-11T00:05:55.991Z,57.45
2019-04-11T00:06:56.123Z,58.72
2019-04-11T00:07:58.054Z,58.30
2019-04-11T00:08:56.467Z,58.09
2019-04-11T00:09:56.761Z,58.51
2019-04-11T00:10:55.757Z,58.51
2019-04-11T00:11:55.745Z,58.40
2019-04-11T00:12:56.927Z,58.82
2019-04-11T00:13:55.802Z,58.92
2019-04-11T00:14:56.038Z,58.54
2019-04-11T00:15:55.698Z,59.13
2019-04-11T00:16:55.687Z,59.16
2019-04-11T00:17:56.505Z,59.26
2019-04-11T00:18:56.841Z,59.57
2019-04-11T00:19:55.859Z,58.95
2019-04-11T00:20:56.161Z,58.95
2019-04-11T00:21:55.631Z,59.26
2019-04-11T00:22:55.619Z,58.95
2019-04-11T00:23:56.592Z,59.57
2019-04-11T00:24:55.605Z,59.19
2019-04-11T00:25:55.927Z,59.36
2019-04-11T00:26:55.574Z,59.26
2019-04-11T00:27:55.563Z,58.95
2019-04-11T00:28:56.266Z,59.36
2019-04-11T00:29:55.548Z,59.08
2019-04-11T00:30:56.607Z,59.47
2019-04-11T00:31:55.520Z,59.16
2019-04-11T00:32:56.048Z,58.98
2019-04-11T00:33:56.332Z,59.29
2019-04-11T00:34:55.500Z,59.29
2019-04-11T00:35:55.694Z,59.08
2019-04-11T00:36:55.464Z,59.50
2019-04-11T00:37:55.451Z,59.19
2019-04-11T00:38:55.444Z,59.50
2019-04-11T00:39:56.270Z,59.39
2019-04-11T00:40:55.449Z,59.29
2019-04-11T00:41:56.442Z,59.19
2019-04-11T00:42:55.397Z,59.60
2019-04-11T00:43:56.639Z,59.50
2019-04-11T00:44:55.373Z,59.19
2019-04-11T00:45:56.088Z,59.19
2019-04-11T00:46:56.348Z,59.80
2019-04-11T00:47:55.384Z,59.29
2019-04-11T00:48:55.328Z,59.50
2019-04-11T00:49:55.318Z,59.73
2019-04-11T00:50:55.967Z,59.21
2019-04-11T00:51:56.183Z,59.50
2019-04-11T00:52:55.823Z,59.60
2019-04-11T00:53:55.277Z,59.70
2019-04-11T00:54:55.402Z,59.11
2019-04-11T00:55:55.713Z,59.83
2019-04-11T00:56:55.243Z,59.70
2019-04-11T00:57:55.232Z,59.73
2019-04-11T00:58:56.091Z,59.94
2019-04-11T00:59:56.424Z,60.66
2019-04-11T01:00:55.572Z,59.94
2019-04-11T01:01:55.188Z,60.14
2019-04-11T01:02:55.895Z,60.14
2019-04-11T01:03:55.795Z,60.22
2019-04-11T01:04:55.151Z,60.77
2019-04-11T01:05:55.569Z,61.38
2019-04-11T01:06:55.333Z,60.97
2019-04-11T01:07:56.230Z,60.97
2019-04-11T01:08:55.813Z,61.07
2019-04-11T01:09:55.095Z,60.77
2019-04-11T01:10:55.254Z,60.89
2019-04-11T01:11:56.155Z,60.66
2019-04-11T01:12:55.067Z,60.97
2019-04-11T01:13:55.743Z,60.87
2019-04-11T01:14:55.312Z,61.10
2019-04-11T01:15:55.036Z,60.79
2019-04-11T01:16:55.017Z,60.79
2019-04-11T01:17:55.953Z,60.79
2019-04-11T01:18:55.210Z,61.10
2019-04-11T01:19:55.297Z,61.28
2019-04-11T01:20:55.694Z,61.10
2019-04-11T01:21:55.067Z,61.21
2019-04-11T01:22:54.951Z,60.58
2019-04-11T01:23:55.454Z,61.21
2019-04-11T01:24:55.760Z,61.31
2019-04-11T01:25:55.008Z,61.10
2019-04-11T01:26:54.914Z,61.31
2019-04-11T01:27:54.900Z,60.79
2019-04-11T01:28:55.397Z,61.52
2019-04-11T01:29:55.697Z,61.41
2019-04-11T01:30:55.491Z,61.21
2019-04-11T01:31:54.858Z,61.21
2019-04-11T01:32:54.954Z,61.00
2019-04-11T01:33:55.978Z,61.34
2019-04-11T01:34:55.094Z,61.44
2019-04-11T01:35:55.390Z,61.34
2019-04-11T01:36:55.489Z,61.03
2019-04-11T01:37:55.731Z,61.55
2019-04-11T01:38:54.828Z,61.72
2019-04-11T01:39:54.768Z,61.76
2019-04-11T01:40:54.750Z,61.44
2019-04-11T01:41:55.169Z,61.55
2019-04-11T01:42:55.516Z,61.76
2019-04-11T01:44:00.937Z,61.96
2019-04-11T01:44:56.789Z,61.96
2019-04-11T01:45:55.916Z,62.48
2019-04-11T01:46:54.690Z,61.96
2019-04-11T01:47:55.292Z,61.96
2019-04-11T01:48:55.612Z,61.76
2019-04-11T01:49:54.648Z,62.37
2019-04-11T01:50:54.638Z,62.16
2019-04-11T01:51:54.634Z,62.06
2019-04-11T01:52:55.022Z,61.78
2019-04-11T01:53:55.342Z,62.37
2019-04-11T01:54:54.592Z,62.16
2019-04-11T01:55:54.712Z,62.48
2019-04-11T01:56:55.736Z,62.27
2019-04-11T01:57:54.558Z,62.48
2019-04-11T01:58:55.245Z,62.37
2019-04-11T01:59:55.552Z,62.48
2019-04-11T02:00:54.743Z,62.30
2019-04-11T02:01:54.883Z,62.09
2019-04-11T02:02:54.897Z,62.19
2019-04-11T02:03:55.283Z,62.09
2019-04-11T02:04:54.481Z,61.57
2019-04-11T02:05:54.470Z,61.47
2019-04-11T02:06:54.459Z,61.78
2019-04-11T02:07:55.290Z,61.78
2019-04-11T02:08:55.558Z,62.09
2019-04-11T02:09:54.746Z,61.57
2019-04-11T02:10:54.414Z,62.40
2019-04-11T02:11:54.403Z,61.57
2019-04-11T02:12:55.292Z,62.51
2019-04-11T02:14:05.177Z,61.57
2019-04-11T02:14:55.598Z,61.50
2019-04-11T02:15:56.796Z,62.61
2019-04-11T02:16:54.346Z,62.61
2019-04-11T02:17:55.035Z,62.43
2019-04-11T02:18:54.325Z,61.71
2019-04-11T02:19:54.454Z,63.02
2019-04-11T02:20:55.495Z,62.54
2019-04-11T02:21:54.293Z,62.33
2019-04-11T02:22:54.944Z,62.09
2019-04-11T02:23:55.236Z,62.74
2019-04-11T02:24:54.361Z,62.85
2019-04-11T02:25:54.535Z,62.54
2019-04-11T02:26:54.622Z,62.23
2019-04-11T02:27:54.232Z,62.33
2019-04-11T02:28:55.187Z,63.06
2019-04-11T02:29:55.125Z,63.16
2019-04-11T02:30:55.847Z,62.85
2019-04-11T02:31:54.974Z,62.74
2019-04-11T02:32:54.187Z,63.40
2019-04-11T02:33:55.235Z,62.95
2019-04-11T02:34:57.087Z,62.95
2019-04-11T02:35:56.461Z,62.95
2019-04-11T02:36:55.843Z,62.77
2019-04-11T02:37:54.878Z,62.88
2019-04-11T02:38:57.486Z,62.43
2019-04-11T02:39:56.001Z,62.74
2019-04-11T02:40:55.135Z,62.46
2019-04-11T02:41:54.930Z,62.88
2019-04-11T02:42:54.882Z,63.16
2019-04-11T02:43:55.059Z,62.54
2019-04-11T02:45:10.905Z,63.09
2019-04-11T02:46:09.070Z,62.88
2019-04-11T02:47:01.842Z,63.19
2019-04-11T02:47:56.403Z,62.98
2019-04-11T02:48:54.494Z,63.19
2019-04-11T02:49:55.084Z,63.50
2019-04-11T02:50:54.309Z,63.40
2019-04-11T02:51:55.730Z,63.60
2019-04-11T02:52:54.042Z,63.81
2019-04-11T02:53:54.979Z,63.60
2019-04-11T02:54:54.519Z,64.04
2019-04-11T02:55:54.337Z,63.81
2019-04-11T02:56:54.838Z,64.12
2019-04-11T02:57:54.329Z,63.94
2019-04-11T02:58:54.556Z,63.63
2019-04-11T02:59:56.095Z,64.36
2019-04-11T03:00:55.905Z,64.36
2019-04-11T03:01:53.845Z,64.04
2019-04-11T03:02:53.842Z,64.46
2019-04-11T03:03:54.133Z,64.67
2019-04-11T03:04:55.608Z,64.36
2019-04-11T03:05:55.432Z,64.36
2019-04-11T03:06:55.024Z,64.77
2019-04-11T03:07:54.097Z,64.36
2019-04-11T03:08:55.055Z,64.46
2019-04-11T03:09:55.731Z,64.59
2019-04-11T03:10:55.622Z,64.25
2019-04-11T03:11:54.633Z,64.70
2019-04-11T03:12:54.594Z,64.80
2019-04-11T03:13:54.862Z,65.32
2019-04-11T03:15:09.246Z,65.22
2019-04-11T03:16:10.134Z,65.32
2019-04-11T03:17:02.472Z,64.90
2019-04-11T03:17:59.186Z,65.63
2019-04-11T03:19:12.994Z,65.42
2019-04-11T03:20:08.293Z,65.22
2019-04-11T03:20:57.690Z,65.32
2019-04-11T03:21:56.586Z,65.11
2019-04-11T03:22:58.205Z,65.42
2019-04-11T03:23:56.064Z,65.42
2019-04-11T03:24:55.398Z,65.97
2019-04-11T03:25:54.371Z,65.35
2019-04-11T03:26:54.912Z,65.22
2019-04-11T03:27:54.169Z,65.42
2019-04-11T03:28:56.206Z,65.63
2019-04-11T03:29:54.219Z,65.56
2019-04-11T03:31:06.812Z,65.35
2019-04-11T03:33:58.117Z,65.53
2019-04-11T03:34:37.724Z,65.25
2019-04-11T03:36:00.270Z,64.83
2019-04-11T03:38:18.430Z,65.66
2019-04-11T03:39:15.631Z,65.45
2019-04-11T03:40:15.146Z,65.77
2019-04-11T03:41:12.225Z,65.66
2019-04-11T03:42:13.001Z,65.56
2019-04-11T03:43:09.369Z,65.56
2019-04-11T03:44:04.302Z,65.87
2019-04-11T03:45:15.218Z,65.87
2019-04-11T03:46:14.232Z,65.45
2019-04-11T03:47:11.184Z,65.35
2019-04-11T03:48:10.091Z,65.97
2019-04-11T03:49:03.887Z,65.66
2019-04-11T03:50:01.718Z,65.77
2019-04-11T03:50:57.134Z,65.87
2019-04-11T03:51:54.882Z,65.35
2019-04-11T03:52:54.057Z,65.56
2019-04-11T03:53:53.636Z,66.00
2019-04-11T03:54:53.992Z,65.97
2019-04-11T03:55:53.786Z,66.18
2019-04-11T03:56:53.800Z,65.80
2019-04-11T03:57:55.971Z,66.18
2019-04-11T03:58:53.536Z,65.77
2019-04-11T03:59:54.536Z,65.80
2019-04-11T04:00:56.872Z,66.11
2019-04-11T04:01:54.921Z,65.69
2019-04-11T04:02:55.121Z,65.66
2019-04-11T04:03:54.227Z,65.59
2019-04-11T04:04:53.938Z,66.53
2019-04-11T04:05:54.915Z,66.31
2019-04-11T04:06:53.122Z,66.11
2019-04-11T04:07:55.014Z,66.53
2019-04-11T04:08:55.244Z,65.80
2019-04-11T04:09:53.733Z,66.11
2019-04-11T04:10:53.665Z,65.80
2019-04-11T04:11:54.557Z,66.53
2019-04-11T04:12:53.652Z,66.21
2019-04-11T04:13:53.930Z,66.31
2019-04-11T04:14:53.936Z,66.00
2019-04-11T04:16:02.768Z,66.00
2019-04-11T04:16:56.487Z,66.21
2019-04-11T04:17:55.242Z,66.21
2019-04-11T04:18:54.196Z,66.00
2019-04-11T04:19:54.295Z,66.24
2019-04-11T04:20:53.334Z,66.21
2019-04-11T04:21:53.291Z,66.74
2019-04-11T04:22:54.403Z,66.94
2019-04-11T04:23:54.598Z,66.63
2019-04-11T04:24:53.847Z,66.63
2019-04-11T04:25:54.326Z,67.05
2019-04-11T04:26:54.620Z,66.77
2019-04-11T04:27:54.266Z,66.14
2019-04-11T04:28:53.478Z,66.31
2019-04-11T04:29:57.263Z,66.63
2019-04-11T04:30:54.465Z,66.87
2019-04-11T04:31:53.262Z,67.05
2019-04-11T04:32:54.592Z,66.63
2019-04-11T04:33:53.464Z,66.77
2019-04-11T04:34:53.272Z,67.18
2019-04-11T04:35:53.151Z,66.56
2019-04-11T04:36:53.749Z,66.56
2019-04-11T04:37:54.411Z,66.97
2019-04-11T04:38:52.767Z,66.35
2019-04-11T04:40:14.863Z,66.66
2019-04-11T04:41:07.357Z,66.66
2019-04-11T04:42:01.225Z,66.87
2019-04-11T04:42:56.245Z,67.70
2019-04-11T04:43:54.663Z,67.08
2019-04-11T04:44:53.881Z,67.80
2019-04-11T04:46:08.741Z,67.29
2019-04-11T04:47:07.789Z,67.18
2019-04-11T04:47:58.866Z,67.70
2019-04-11T04:48:54.012Z,67.49
2019-04-11T04:49:54.214Z,67.29
2019-04-11T04:50:55.031Z,67.60
2019-04-11T04:51:53.325Z,67.39
2019-04-11T04:52:53.611Z,67.49
2019-04-11T04:53:52.604Z,67.08
2019-04-11T04:54:53.379Z,67.08
2019-04-11T04:55:54.245Z,67.29
2019-04-11T04:56:54.421Z,67.08
2019-04-11T04:57:53.246Z,66.97
2019-04-11T04:58:53.959Z,67.08
2019-04-11T04:59:53.229Z,67.11
2019-04-11T05:00:54.214Z,66.56
2019-04-11T05:01:53.263Z,67.29
2019-04-11T05:02:52.502Z,66.66
2019-04-11T05:03:54.047Z,67.08
2019-04-11T05:04:54.164Z,67.91
2019-04-11T05:05:52.998Z,68.01
2019-04-11T05:06:54.052Z,67.39
2019-04-11T05:07:53.915Z,68.01
2019-04-11T05:08:52.435Z,68.53
2019-04-11T05:09:52.423Z,67.39
2019-04-11T05:10:53.483Z,67.80
2019-04-11T05:11:53.091Z,67.80
2019-04-11T05:12:52.392Z,67.39
2019-04-11T05:13:52.378Z,67.60
2019-04-11T05:14:54.033Z,68.04
2019-04-11T05:16:04.696Z,67.49
2019-04-11T05:16:54.574Z,67.70
2019-04-11T05:17:53.353Z,67.91
2019-04-11T05:18:52.557Z,67.60
2019-04-11T05:19:52.312Z,67.29
2019-04-11T05:20:52.764Z,67.60
2019-04-11T05:21:52.291Z,68.01
2019-04-11T05:22:52.431Z,68.01
2019-04-11T05:23:52.267Z,68.01
2019-04-11T05:24:52.255Z,67.39
2019-04-11T05:25:53.027Z,67.67
2019-04-11T05:26:52.337Z,67.05
2019-04-11T05:27:52.228Z,66.91
2019-04-11T05:28:52.989Z,66.39
2019-04-11T05:29:52.200Z,66.08
2019-04-11T05:30:53.201Z,65.32
2019-04-11T05:31:52.180Z,65.53
2019-04-11T05:32:52.207Z,65.19
2019-04-11T05:33:52.156Z,64.98
2019-04-11T05:34:53.081Z,64.98
2019-04-11T05:35:52.184Z,64.33
2019-04-11T05:36:53.269Z,64.12
2019-04-11T05:37:52.118Z,63.68
2019-04-11T05:38:52.680Z,63.37
2019-04-11T05:39:52.529Z,62.95
2019-04-11T05:40:52.400Z,62.61
2019-04-11T05:41:52.076Z,62.27
2019-04-11T05:42:54.217Z,61.96
2019-04-11T05:43:52.043Z,61.72
2019-04-11T05:44:52.040Z,61.41
2019-04-11T05:45:54.712Z,61.41
2019-04-11T05:46:57.249Z,60.97
2019-04-11T05:47:54.961Z,61.31
2019-04-11T05:48:54.989Z,61.28
2019-04-11T05:49:52.975Z,60.66
2019-04-11T05:50:52.965Z,59.60
2019-04-11T05:51:55.708Z,59.19
2019-04-11T05:52:52.942Z,59.39
2019-04-11T05:53:54.458Z,59.70
2019-04-11T05:54:52.555Z,59.80
2019-04-11T05:55:53.092Z,59.70
2019-04-11T05:56:55.194Z,59.39
2019-04-11T05:57:52.886Z,59.05
2019-04-11T05:58:51.877Z,59.47
2019-04-11T05:59:54.392Z,58.82
2019-04-11T06:00:53.258Z,58.72
2019-04-11T06:01:53.010Z,58.61
2019-04-11T06:02:53.231Z,57.37
2019-04-11T06:03:52.536Z,57.48
2019-04-11T06:04:55.918Z,57.86
2019-04-11T06:05:52.080Z,57.68
2019-04-11T06:06:52.802Z,57.86
2019-04-11T06:07:55.627Z,58.38
2019-04-11T06:08:54.161Z,57.65
2019-04-11T06:09:52.753Z,56.52
2019-04-11T06:10:52.519Z,56.34
2019-04-11T06:11:54.452Z,55.90
2019-04-11T06:12:52.624Z,56.73
2019-04-11T06:13:51.712Z,56.52
2019-04-11T06:14:51.701Z,55.80
2019-04-11T06:15:51.691Z,56.00
2019-04-11T06:16:55.266Z,55.38
2019-04-11T06:17:51.675Z,56.00
2019-04-11T06:18:52.228Z,56.18
2019-04-11T06:19:51.673Z,55.66
2019-04-11T06:20:51.634Z,55.87
2019-04-11T06:21:52.599Z,56.39
2019-04-11T06:22:51.619Z,55.98
2019-04-11T06:23:51.828Z,56.08
2019-04-11T06:24:52.284Z,55.98
2019-04-11T06:25:51.578Z,55.77
2019-04-11T06:26:51.565Z,55.36
2019-04-11T06:27:51.599Z,55.36
2019-04-11T06:28:53.963Z,55.13
2019-04-11T06:29:52.878Z,54.82
2019-04-11T06:30:52.656Z,54.69
2019-04-11T06:31:51.629Z,54.69
2019-04-11T06:32:52.078Z,54.69
2019-04-11T06:33:51.510Z,54.69
2019-04-11T06:34:51.479Z,54.17
2019-04-11T06:35:52.429Z,54.25
2019-04-11T06:36:51.456Z,53.94
2019-04-11T06:37:52.194Z,53.11
2019-04-11T06:38:51.434Z,53.19
2019-04-11T06:39:51.613Z,53.06
2019-04-11T06:40:52.464Z,52.96
2019-04-11T06:41:51.403Z,52.32
2019-04-11T06:42:51.706Z,52.42
2019-04-11T06:43:52.127Z,51.26
2019-04-11T06:44:52.164Z,51.16
2019-04-11T06:45:52.417Z,50.75
2019-04-11T06:46:54.842Z,51.37
2019-04-11T06:47:53.159Z,50.85
2019-04-11T06:48:51.320Z,50.54
2019-04-11T06:49:51.310Z,50.75
2019-04-11T06:50:51.366Z,51.57
2019-04-11T06:51:53.398Z,51.57
2019-04-11T06:52:51.286Z,51.26
2019-04-11T06:53:51.264Z,50.85
2019-04-11T06:54:52.374Z,51.06
2019-04-11T06:55:51.243Z,51.37
2019-04-11T06:56:52.281Z,50.24
2019-04-11T06:57:51.248Z,50.65
2019-04-11T06:58:53.549Z,50.65
2019-04-11T06:59:52.378Z,49.82
2019-04-11T07:00:51.713Z,50.03
2019-04-11T07:01:51.191Z,49.90
2019-04-11T07:02:51.165Z,49.80
2019-04-11T07:03:51.165Z,49.47
2019-04-11T07:04:51.774Z,49.39
2019-04-11T07:05:51.129Z,48.77
2019-04-11T07:06:51.751Z,49.06
2019-04-11T07:07:51.622Z,49.35
2019-04-11T07:08:51.208Z,48.83
2019-04-11T07:09:51.206Z,48.83
2019-04-11T07:10:51.197Z,47.60
2019-04-11T07:11:51.062Z,47.29
2019-04-11T07:12:53.012Z,47.88
2019-04-11T07:13:51.055Z,46.98
2019-04-11T07:14:51.029Z,48.01
2019-04-11T07:15:51.021Z,47.78
2019-04-11T07:16:59.627Z,47.34
2019-04-11T07:17:52.531Z,47.34
2019-04-11T07:18:50.997Z,47.67
2019-04-11T07:19:51.524Z,47.27
2019-04-11T07:20:52.385Z,46.96
2019-04-11T07:21:51.058Z,47.27
2019-04-11T07:22:51.028Z,47.27
2019-04-11T07:23:51.494Z,47.16
2019-04-11T07:24:50.918Z,46.77
2019-04-11T07:25:51.762Z,46.96
2019-04-11T07:26:52.077Z,47.47
2019-04-11T07:27:50.885Z,47.16
2019-04-11T07:28:50.882Z,47.34
2019-04-11T07:29:50.860Z,47.34
2019-04-11T07:30:50.852Z,47.55
2019-04-11T07:31:50.840Z,47.55
2019-04-11T07:32:50.870Z,46.62
2019-04-11T07:33:51.844Z,46.94
2019-04-11T07:34:52.183Z,46.32
2019-04-11T07:35:50.846Z,46.09
2019-04-11T07:36:50.785Z,46.71
2019-04-11T07:37:51.115Z,45.70
2019-04-11T07:38:52.231Z,45.48
2019-04-11T07:39:51.634Z,46.09
2019-04-11T07:40:51.850Z,45.89
2019-04-11T07:41:52.089Z,45.89
2019-04-11T07:42:52.823Z,45.17
2019-04-11T07:43:50.721Z,44.53
2019-04-11T07:44:51.720Z,44.65
2019-04-11T07:45:51.261Z,45.07
2019-04-11T07:46:51.562Z,45.48
2019-04-11T07:47:50.663Z,44.86
2019-04-11T07:48:50.650Z,44.94
2019-04-11T07:49:53.414Z,44.76
2019-04-11T07:50:51.582Z,44.53
2019-04-11T07:51:50.850Z,43.84
2019-04-11T07:52:51.585Z,44.35
2019-04-11T07:53:50.598Z,43.91
2019-04-11T07:54:51.399Z,43.52
2019-04-11T07:55:51.008Z,44.86
2019-04-11T07:56:50.729Z,43.71
2019-04-11T07:57:50.549Z,44.14
2019-04-11T07:58:50.540Z,43.63
2019-04-11T07:59:51.222Z,44.14
2019-04-11T08:00:52.906Z,44.56
2019-04-11T08:01:50.648Z,43.91
2019-04-11T08:02:50.495Z,43.63
2019-04-11T08:03:51.292Z,44.23
2019-04-11T08:04:50.485Z,44.12
2019-04-11T08:05:50.461Z,44.74
2019-04-11T08:06:50.456Z,43.30
2019-04-11T08:07:51.433Z,42.48
2019-04-11T08:08:51.414Z,43.10
2019-04-11T08:09:50.639Z,42.25
2019-04-11T08:10:50.604Z,42.36
2019-04-11T08:11:50.397Z,42.87
2019-04-11T08:12:50.384Z,42.66
2019-04-11T08:13:53.111Z,42.77
2019-04-11T08:14:51.095Z,42.66
2019-04-11T08:15:50.347Z,42.13
2019-04-11T08:16:51.097Z,42.65
2019-04-11T08:17:50.327Z,41.62
2019-04-11T08:18:50.930Z,41.29
2019-04-11T08:19:51.244Z,40.78
2019-04-11T08:20:50.294Z,40.88
2019-04-11T08:21:50.449Z,40.66
2019-04-11T08:22:51.475Z,40.64
2019-04-11T08:23:50.262Z,40.83
2019-04-11T08:24:51.043Z,40.09
2019-04-11T08:25:50.322Z,39.78
2019-04-11T08:26:50.502Z,38.96
2019-04-11T08:27:58.313Z,39.26
2019-04-11T08:29:01.354Z,38.95
2019-04-11T08:29:52.012Z,38.32
2019-04-11T08:30:50.952Z,38.95
2019-04-11T08:31:51.519Z,39.15
2019-04-11T08:32:50.160Z,38.23
2019-04-11T08:33:50.960Z,38.54
2019-04-11T08:34:51.296Z,38.73
2019-04-11T08:35:52.023Z,39.05
2019-04-11T08:36:50.563Z,38.75
2019-04-11T08:37:50.102Z,39.54
2019-04-11T08:38:50.866Z,38.73
2019-04-11T08:39:50.130Z,39.64
2019-04-11T08:40:51.287Z,38.93
2019-04-11T08:41:50.118Z,39.03
2019-04-11T08:42:50.855Z,38.93
2019-04-11T08:43:51.189Z,38.93
2019-04-11T08:44:50.220Z,39.14
2019-04-11T08:45:50.637Z,38.62
2019-04-11T08:46:51.051Z,38.81
2019-04-11T08:47:54.621Z,38.40
2019-04-11T08:48:51.305Z,38.20
2019-04-11T08:49:50.212Z,37.99
2019-04-11T08:50:50.434Z,39.01
2019-04-11T08:51:49.951Z,37.87
2019-04-11T08:52:49.960Z,37.98
2019-04-11T08:53:50.935Z,37.77
2019-04-11T08:54:50.204Z,38.18
2019-04-11T08:55:55.296Z,37.87
2019-04-11T08:56:51.521Z,37.26
2019-04-11T08:57:49.974Z,37.98
2019-04-11T08:58:50.835Z,37.99
2019-04-11T08:59:49.860Z,36.66
2019-04-11T09:00:51.101Z,36.66
2019-04-11T09:01:49.832Z,38.59
2019-04-11T09:02:49.825Z,38.08
2019-04-11T09:03:59.785Z,38.18
2019-04-11T09:05:02.735Z,36.94
2019-04-11T09:05:51.303Z,36.75
2019-04-11T09:06:49.777Z,36.85
2019-04-11T09:07:49.880Z,36.55
2019-04-11T09:08:50.974Z,36.43
2019-04-11T09:09:49.772Z,37.85
2019-04-11T09:10:50.748Z,36.65
2019-04-11T09:11:49.812Z,36.49
2019-04-11T09:12:50.882Z,35.77
2019-04-11T09:13:49.698Z,36.24
2019-04-11T09:14:50.612Z,34.80
2019-04-11T09:15:50.851Z,33.68
2019-04-11T09:16:49.958Z,33.15
2019-04-11T09:17:58.972Z,34.24
2019-04-11T09:18:50.647Z,33.70
2019-04-11T09:19:49.635Z,31.74
2019-04-11T09:20:49.649Z,31.63
2019-04-11T09:21:50.762Z,29.89
2019-04-11T09:22:49.601Z,30.58
2019-04-11T09:23:50.175Z,30.15
2019-04-11T09:24:50.562Z,28.23
2019-04-11T09:25:51.730Z,28.82
2019-04-11T09:26:49.883Z,28.81
2019-04-11T09:27:49.543Z,27.48
2019-04-11T09:28:49.595Z,27.98
2019-04-11T09:29:50.363Z,27.68
2019-04-11T09:30:49.509Z,28.80
2019-04-11T09:31:49.571Z,28.16
2019-04-11T09:32:50.651Z,28.55
2019-04-11T09:33:49.476Z,28.64
2019-04-11T09:34:50.128Z,28.32
2019-04-11T09:35:49.454Z,27.42
2019-04-11T09:36:49.453Z,27.30
2019-04-11T09:37:49.671Z,27.69
2019-04-11T09:38:50.661Z,27.37
2019-04-11T09:39:49.415Z,27.26
2019-04-11T09:40:50.147Z,27.15
2019-04-11T09:41:49.401Z,27.62
2019-04-11T09:42:49.378Z,26.12
2019-04-11T09:43:50.479Z,26.10
2019-04-11T09:44:49.371Z,25.90
2019-04-11T09:45:50.867Z,26.01
2019-04-11T09:46:50.529Z,25.70
2019-04-11T09:47:49.835Z,25.49
2019-04-11T09:48:50.389Z,25.79
2019-04-11T09:49:49.424Z,24.30
2019-04-11T09:50:49.289Z,25.71
2019-04-11T09:51:49.876Z,25.31
2019-04-11T09:52:49.615Z,25.10
2019-04-11T09:53:49.257Z,25.12
2019-04-11T09:54:50.490Z,25.31
2019-04-11T09:55:50.044Z,24.81
2019-04-11T09:56:49.236Z,24.52
2019-04-11T09:57:50.307Z,26.21
2019-04-11T09:58:49.717Z,25.99
2019-04-11T09:59:49.723Z,24.77
2019-04-11T10:00:49.180Z,24.35
2019-04-11T10:01:49.611Z,23.26
2019-04-11T10:02:50.459Z,23.88
2019-04-11T10:03:49.146Z,24.23
2019-04-11T10:04:50.191Z,25.74
2019-04-11T10:05:50.313Z,25.65
2019-04-11T10:06:49.115Z,25.57
2019-04-11T10:07:50.215Z,25.94
2019-04-11T10:08:49.225Z,25.14
2019-04-11T10:09:50.421Z,24.63
2019-04-11T10:10:49.069Z,24.73
2019-04-11T10:11:49.061Z,24.91
2019-04-11T10:12:49.079Z,24.84
2019-04-11T10:13:49.149Z,24.55
2019-04-11T10:14:50.094Z,25.67
2019-04-11T10:15:49.016Z,25.99
2019-04-11T10:16:49.006Z,26.89
2019-04-11T10:17:49.003Z,25.96
2019-04-11T10:18:49.515Z,27.04
2019-04-11T10:19:48.972Z,25.81
2019-04-11T10:20:48.964Z,25.58
2019-04-11T10:21:49.968Z,25.15
2019-04-11T10:22:49.101Z,24.04
2019-04-11T10:23:49.295Z,24.02
2019-04-11T10:24:48.917Z,22.22
2019-04-11T10:25:49.734Z,23.72
2019-04-11T10:26:49.984Z,23.21
2019-04-11T10:27:49.070Z,23.50
2019-04-11T10:28:49.580Z,23.91
2019-04-11T10:29:48.865Z,23.19
2019-04-11T10:30:48.870Z,22.12
2019-04-11T10:31:48.843Z,23.61
2019-04-11T10:32:49.689Z,23.41
2019-04-11T10:33:49.054Z,22.80
2019-04-11T10:34:49.967Z,21.59
2019-04-11T10:35:48.799Z,22.71
2019-04-11T10:36:49.573Z,22.61
2019-04-11T10:37:49.802Z,23.21
2019-04-11T10:38:48.893Z,22.20
2019-04-11T10:39:49.265Z,21.81
2019-04-11T10:40:48.746Z,22.12
2019-04-11T10:41:49.150Z,23.39
2019-04-11T10:42:48.779Z,22.80
2019-04-11T10:43:49.622Z,22.39
2019-04-11T10:44:49.822Z,21.50
2019-04-11T10:45:48.997Z,21.59
2019-04-11T10:46:49.533Z,22.80
2019-04-11T10:47:49.297Z,22.47
2019-04-11T10:48:50.287Z,20.78
2019-04-11T10:49:48.650Z,22.27
2019-04-11T10:50:48.708Z,21.17
2019-04-11T10:51:49.730Z,21.26
2019-04-11T10:52:48.922Z,21.37
2019-04-11T10:53:49.221Z,20.98
2019-04-11T10:54:49.158Z,23.08
2019-04-11T10:55:49.576Z,21.09
2019-04-11T10:56:49.546Z,21.78
2019-04-11T10:57:48.744Z,22.39
2019-04-11T10:58:49.056Z,22.17
2019-04-11T10:59:49.044Z,21.36
2019-04-11T11:00:48.537Z,20.16
2019-04-11T11:01:48.567Z,20.95
2019-04-11T11:02:49.381Z,21.04
2019-04-11T11:03:49.346Z,21.12
2019-04-11T11:04:48.573Z,21.03
2019-04-11T11:05:49.332Z,21.22
2019-04-11T11:06:48.473Z,20.81
2019-04-11T11:07:48.906Z,20.71
2019-04-11T11:08:48.460Z,20.31
2019-04-11T11:09:48.451Z,20.81
2019-04-11T11:10:48.432Z,20.71
2019-04-11T11:11:48.500Z,19.51
2019-04-11T11:12:49.554Z,20.81
2019-04-11T11:13:48.410Z,20.12
2019-04-11T11:14:49.047Z,20.72
2019-04-11T11:15:49.711Z,20.62
2019-04-11T11:16:48.678Z,20.32
2019-04-11T11:18:20.266Z,20.62
2019-04-11T11:19:21.125Z,19.72
2019-04-11T11:19:59.323Z,19.82
2019-04-11T11:20:55.233Z,19.72
2019-04-11T11:21:49.317Z,20.22
2019-04-11T11:22:48.308Z,19.92
2019-04-11T11:23:49.284Z,20.62
2019-04-11T11:24:48.286Z,20.31
2019-04-11T11:25:50.025Z,21.19
2019-04-11T11:26:52.082Z,19.69
2019-04-11T11:27:50.286Z,20.19
2019-04-11T11:28:48.778Z,19.88
2019-04-11T11:29:48.404Z,18.88
2019-04-11T11:30:49.484Z,19.29
2019-04-11T11:31:49.196Z,19.40
2019-04-11T11:32:48.205Z,20.20
2019-04-11T11:33:49.022Z,20.10
2019-04-11T11:34:51.271Z,19.21
2019-04-11T11:35:48.173Z,19.40
2019-04-11T11:36:48.162Z,19.80
2019-04-11T11:37:49.231Z,19.90
2019-04-11T11:38:48.143Z,19.70
2019-04-11T11:39:49.095Z,19.99
2019-04-11T11:40:48.120Z,19.20
2019-04-11T11:41:48.956Z,20.19
2019-04-11T11:42:48.099Z,19.29
2019-04-11T11:43:48.798Z,19.48
2019-04-11T11:44:48.824Z,19.58
2019-04-11T11:45:51.894Z,19.49
2019-04-11T11:46:50.068Z,19.20
2019-04-11T11:47:49.032Z,19.31
2019-04-11T11:48:52.241Z,19.61
2019-04-11T11:49:57.015Z,20.11
2019-04-11T11:50:50.580Z,19.22
2019-04-11T11:51:48.009Z,19.12
2019-04-11T11:52:48.951Z,19.72
2019-04-11T11:53:49.004Z,19.71
2019-04-11T11:54:48.215Z,19.31
2019-04-11T11:55:47.967Z,19.52
2019-04-11T11:56:48.933Z,18.92
2019-04-11T11:57:47.945Z,19.22
2019-04-11T11:58:53.442Z,20.03
2019-04-11T11:59:48.933Z,19.83
2019-04-11T12:00:50.050Z,20.23
2019-04-11T12:01:50.766Z,20.03
2019-04-11T12:02:49.120Z,19.83
2019-04-11T12:03:48.760Z,20.73
2019-04-11T12:04:48.501Z,20.01
2019-04-11T12:05:50.224Z,19.71
2019-04-11T12:06:49.597Z,19.51
2019-04-11T12:07:47.841Z,19.91
2019-04-11T12:08:49.316Z,19.40
2019-04-11T12:09:48.837Z,20.01
2019-04-11T12:10:47.811Z,20.41
2019-04-11T12:11:48.523Z,20.00
2019-04-11T12:12:48.440Z,20.11
2019-04-11T12:13:47.780Z,19.50
2019-04-11T12:14:47.887Z,20.79
2019-04-11T12:15:48.959Z,20.78
2019-04-11T12:16:48.616Z,19.27
2019-04-11T12:17:49.021Z,19.08
2019-04-11T12:18:50.338Z,19.27
2019-04-11T12:19:53.351Z,19.68
2019-04-11T12:20:49.353Z,19.48
2019-04-11T12:21:48.914Z,18.90
2019-04-11T12:22:49.558Z,19.79
2019-04-11T12:23:57.982Z,20.79
2019-04-11T12:24:48.668Z,19.48
2019-04-11T12:25:47.668Z,20.08
2019-04-11T12:26:48.661Z,19.67
2019-04-11T12:27:47.777Z,20.67
2019-04-11T12:28:47.924Z,19.87
2019-04-11T12:29:50.112Z,19.37
2019-04-11T12:30:48.168Z,20.37
2019-04-11T12:31:48.117Z,19.77
2019-04-11T12:32:48.715Z,18.88
2019-04-11T12:33:47.908Z,19.48
2019-04-11T12:34:47.561Z,19.69
2019-04-11T12:35:48.651Z,20.79
2019-04-11T12:36:50.988Z,19.31
2019-04-11T12:37:51.879Z,19.80
2019-04-11T12:38:47.519Z,19.80
2019-04-11T12:39:47.515Z,19.69
2019-04-11T12:40:47.514Z,20.38
2019-04-11T12:41:47.488Z,20.39
2019-04-11T12:42:47.498Z,19.38
2019-04-11T12:43:47.468Z,19.98
2019-04-11T12:44:47.457Z,19.10
2019-04-11T12:45:47.445Z,19.20
2019-04-11T12:46:47.443Z,19.80
2019-04-11T12:47:47.426Z,18.82
2019-04-11T12:48:47.414Z,19.61
2019-04-11T12:49:52.825Z,19.61
2019-04-11T12:50:48.390Z,20.11
2019-04-11T12:51:47.391Z,19.81
2019-04-11T12:52:47.371Z,20.12
2019-04-11T12:53:47.362Z,19.93
2019-04-11T12:54:47.352Z,19.93
2019-04-11T12:55:47.346Z,19.73